createdAt,value
2019-03-18T00:02:11.811Z,75.70
2019-03-18T00:04:41.875Z,75.90
2019-03-18T00:07:12.045Z,75.90
2019-03-18T00:09:42.010Z,75.80
2019-03-18T00:12:11.960Z,75.90
2019-03-18T00:14:41.873Z,75.90
2019-03-18T00:17:11.834Z,75.90
2019-03-18T00:19:42.963Z,76.00
2019-03-18T00:22:14.121Z,76.00
2019-03-18T00:24:45.130Z,75.70
2019-03-18T00:27:15.108Z,75.60
2019-03-18T00:29:45.139Z,75.90
2019-03-18T00:32:15.149Z,75.80
2019-03-18T00:34:45.064Z,76.20
2019-03-18T00:37:15.016Z,76.10
2019-03-18T00:39:44.885Z,75.90
2019-03-18T00:42:14.803Z,76.20
2019-03-18T00:44:44.688Z,76.00
2019-03-18T00:47:14.704Z,75.70
2019-03-18T00:49:44.647Z,75.60
2019-03-18T00:52:14.606Z,75.70
2019-03-18T00:54:44.529Z,75.90
2019-03-18T00:57:14.481Z,75.50
2019-03-18T00:59:44.337Z,75.60
2019-03-18T01:02:14.368Z,75.60
2019-03-18T01:04:45.365Z,75.90
2019-03-18T01:07:15.426Z,76.20
2019-03-18T01:09:45.352Z,76.20
2019-03-18T01:12:15.268Z,76.20
2019-03-18T01:14:45.201Z,76.30
2019-03-18T01:17:15.048Z,76.60
2019-03-18T01:19:45.049Z,76.60
2019-03-18T01:22:14.982Z,76.30
2019-03-18T01:24:44.916Z,76.50
2019-03-18T01:27:14.843Z,76.60
2019-03-18T01:29:44.777Z,76.40
2019-03-18T01:32:14.704Z,76.20
2019-03-18T01:34:44.553Z,76.60
2019-03-18T01:37:14.429Z,76.40
2019-03-18T01:39:44.344Z,76.60
2019-03-18T01:42:16.754Z,76.80
2019-03-18T01:44:45.752Z,77.70
2019-03-18T01:47:15.641Z,77.40
2019-03-18T01:49:45.561Z,77.10
2019-03-18T01:52:15.415Z,77.20
2019-03-18T01:54:45.303Z,77.20
2019-03-18T01:57:15.233Z,77.20
2019-03-18T01:59:45.096Z,76.90
2019-03-18T02:02:14.978Z,77.20
2019-03-18T02:04:44.944Z,77.20
2019-03-18T02:07:14.885Z,77.40
2019-03-18T02:09:44.755Z,77.50
2019-03-18T02:12:14.679Z,77.70
2019-03-18T02:14:44.610Z,77.90
2019-03-18T02:17:14.449Z,78.00
2019-03-18T02:19:44.389Z,78.10
2019-03-18T02:22:14.265Z,78.10
2019-03-18T02:24:44.192Z,78.20
2019-03-18T02:27:14.058Z,78.50
2019-03-18T02:29:43.971Z,78.30
2019-03-18T02:32:13.829Z,78.50
2019-03-18T02:34:44.471Z,78.30
2019-03-18T02:37:14.376Z,78.10
2019-03-18T02:39:44.309Z,78.10
2019-03-18T02:42:14.246Z,77.90
2019-03-18T02:44:44.170Z,77.90
2019-03-18T02:47:14.105Z,78.10
2019-03-18T02:49:44.009Z,78.30
2019-03-18T02:52:13.879Z,78.00
2019-03-18T02:54:43.822Z,78.00
2019-03-18T02:57:13.735Z,77.80
2019-03-18T02:59:43.668Z,78.00
2019-03-18T03:02:13.589Z,78.00
2019-03-18T03:04:43.592Z,78.20
2019-03-18T03:07:13.524Z,78.20
2019-03-18T03:09:43.370Z,78.20
2019-03-18T03:12:13.233Z,78.20
2019-03-18T03:14:43.131Z,78.00
2019-03-18T03:17:13.031Z,77.90
2019-03-18T03:19:42.964Z,78.10
2019-03-18T03:22:12.884Z,78.10
2019-03-18T03:24:42.800Z,78.30
2019-03-18T03:27:12.730Z,78.60
2019-03-18T03:29:43.750Z,78.80
2019-03-18T03:32:13.696Z,78.80
2019-03-18T03:34:43.610Z,79.10
2019-03-18T03:37:13.552Z,79.20
2019-03-18T03:39:43.402Z,79.30
2019-03-18T03:42:13.378Z,79.60
2019-03-18T03:44:43.291Z,79.70
2019-03-18T03:47:13.232Z,80.10
2019-03-18T03:49:43.233Z,80.10
2019-03-18T03:52:13.109Z,80.10
2019-03-18T03:54:43.104Z,80.50
2019-03-18T03:57:13.097Z,80.50
2019-03-18T03:59:43.064Z,80.60
2019-03-18T04:02:13.133Z,80.60
2019-03-18T04:04:43.008Z,80.80
2019-03-18T04:07:13.063Z,80.80
2019-03-18T04:09:43.009Z,80.80
2019-03-18T04:12:12.909Z,80.90
2019-03-18T04:14:42.809Z,80.70
2019-03-18T04:17:12.789Z,80.50
2019-03-18T04:19:42.731Z,80.40
2019-03-18T04:22:12.603Z,80.10
2019-03-18T04:24:42.539Z,79.80
2019-03-18T04:27:12.384Z,80.10
2019-03-18T04:29:42.242Z,80.00
2019-03-18T04:32:12.128Z,79.90
2019-03-18T04:34:42.063Z,80.00
2019-03-18T04:37:24.533Z,80.00
2019-03-18T04:39:54.414Z,80.00
2019-03-18T04:42:24.415Z,80.10
2019-03-18T04:44:54.275Z,80.10
2019-03-18T04:47:24.222Z,80.80
2019-03-18T04:49:54.128Z,80.00
2019-03-18T04:52:23.983Z,80.20
2019-03-18T04:54:53.913Z,80.50
2019-03-18T04:57:23.871Z,80.70
2019-03-18T04:59:53.909Z,81.10
2019-03-18T05:02:23.731Z,80.80
2019-03-18T05:04:53.613Z,80.80
2019-03-18T05:07:23.530Z,81.00
2019-03-18T05:09:53.384Z,81.20
2019-03-18T05:12:23.243Z,81.60
2019-03-18T05:14:53.105Z,81.70
2019-03-18T05:17:26.763Z,81.90
2019-03-18T05:19:54.697Z,82.10
2019-03-18T05:22:24.648Z,82.20
2019-03-18T05:24:54.552Z,82.30
2019-03-18T05:27:24.404Z,82.60
2019-03-18T05:29:54.243Z,82.30
2019-03-18T05:32:24.497Z,82.40
2019-03-18T05:34:54.460Z,82.30
2019-03-18T05:37:24.325Z,82.20
2019-03-18T05:39:54.303Z,82.20
2019-03-18T05:42:24.169Z,82.40
2019-03-18T05:44:54.103Z,82.40
2019-03-18T05:47:24.162Z,82.20
2019-03-18T05:49:54.243Z,82.30
2019-03-18T05:52:25.741Z,82.20
2019-03-18T05:54:55.594Z,82.40
2019-03-18T05:57:26.288Z,82.30
2019-03-18T05:59:56.171Z,82.30
2019-03-18T06:02:26.054Z,82.30
2019-03-18T06:04:56.215Z,82.30
2019-03-18T06:07:26.260Z,82.00
2019-03-18T06:09:56.159Z,82.20
2019-03-18T06:12:26.081Z,82.10
2019-03-18T06:14:56.045Z,81.90
2019-03-18T06:17:25.914Z,82.20
2019-03-18T06:19:55.829Z,82.00
2019-03-18T06:22:25.747Z,82.10
2019-03-18T06:24:55.597Z,82.20
2019-03-18T06:27:25.607Z,81.60
2019-03-18T06:29:55.524Z,81.30
2019-03-18T06:32:25.375Z,79.50
2019-03-18T06:34:55.344Z,75.40
2019-03-18T06:37:25.197Z,71.30
2019-03-18T06:39:56.263Z,67.50
2019-03-18T06:42:26.121Z,64.40
2019-03-18T06:44:56.011Z,61.90
2019-03-18T06:47:25.966Z,60.70
2019-03-18T06:49:55.824Z,60.20
2019-03-18T06:52:25.781Z,59.70
2019-03-18T06:54:55.735Z,59.30
2019-03-18T06:57:25.729Z,58.60
2019-03-18T06:59:55.587Z,57.90
2019-03-18T07:02:25.481Z,57.40
2019-03-18T07:04:55.412Z,56.80
2019-03-18T07:07:26.304Z,56.40
2019-03-18T07:09:56.224Z,57.60
2019-03-18T07:12:27.501Z,58.40
2019-03-18T07:14:57.490Z,59.00
2019-03-18T07:17:27.333Z,59.30
2019-03-18T07:19:57.255Z,59.60
2019-03-18T07:22:27.111Z,58.30
2019-03-18T07:24:57.033Z,58.20
2019-03-18T07:27:26.966Z,58.30
2019-03-18T07:29:56.878Z,58.80
2019-03-18T07:32:26.735Z,59.80
2019-03-18T07:34:57.020Z,60.40
2019-03-18T07:37:26.882Z,61.50
2019-03-18T07:39:56.748Z,62.10
2019-03-18T07:42:26.668Z,62.80
2019-03-18T07:44:56.544Z,63.30
2019-03-18T07:47:26.528Z,63.70
2019-03-18T07:49:56.400Z,64.20
2019-03-18T07:52:26.305Z,65.40
2019-03-18T07:54:56.247Z,66.20
2019-03-18T07:57:26.090Z,66.10
2019-03-18T07:59:56.021Z,65.80
2019-03-18T08:02:26.013Z,65.70
2019-03-18T08:04:55.866Z,65.70
2019-03-18T08:07:25.774Z,65.40
2019-03-18T08:09:56.757Z,65.20
2019-03-18T08:12:26.624Z,65.20
2019-03-18T08:14:56.534Z,64.90
2019-03-18T08:17:26.480Z,66.10
2019-03-18T08:19:56.413Z,66.30
2019-03-18T08:22:26.321Z,66.10
2019-03-18T08:24:56.271Z,66.10
2019-03-18T08:27:26.256Z,66.30
2019-03-18T08:29:56.164Z,66.50
2019-03-18T08:32:26.028Z,67.00
2019-03-18T08:34:55.958Z,68.00
2019-03-18T08:37:25.933Z,68.60
2019-03-18T08:39:55.872Z,69.20
2019-03-18T08:42:25.799Z,70.20
2019-03-18T08:44:55.718Z,73.50
2019-03-18T08:47:25.628Z,73.70
2019-03-18T08:49:55.479Z,74.40
2019-03-18T08:52:25.416Z,74.80
2019-03-18T08:54:55.349Z,75.80
2019-03-18T08:57:25.265Z,76.30
2019-03-18T08:59:55.130Z,75.70
2019-03-18T09:02:25.017Z,75.10
2019-03-18T09:04:54.900Z,75.30
2019-03-18T09:07:24.816Z,76.00
2019-03-18T09:09:54.747Z,74.80
2019-03-18T09:12:24.699Z,74.20
2019-03-18T09:14:54.684Z,73.70
2019-03-18T09:17:24.609Z,73.50
2019-03-18T09:19:54.472Z,72.80
2019-03-18T09:22:24.333Z,72.40
2019-03-18T09:24:54.389Z,72.00
2019-03-18T09:27:24.443Z,70.50
2019-03-18T09:29:54.503Z,69.70
2019-03-18T09:32:24.461Z,69.40
2019-03-18T09:34:54.857Z,68.60
2019-03-18T09:37:24.836Z,68.40
2019-03-18T09:39:54.765Z,68.00
2019-03-18T09:42:25.857Z,67.30
2019-03-18T09:44:55.871Z,66.80
2019-03-18T09:47:26.816Z,66.50
2019-03-18T09:49:56.760Z,66.80
2019-03-18T09:52:26.621Z,67.10
2019-03-18T09:54:56.569Z,67.20
2019-03-18T09:57:26.685Z,65.60
2019-03-18T09:59:56.765Z,57.90
2019-03-18T10:02:26.673Z,49.30
2019-03-18T10:04:57.586Z,42.70
2019-03-18T10:07:27.464Z,39.80
2019-03-18T10:09:57.380Z,37.80
2019-03-18T10:12:27.327Z,34.70
2019-03-18T10:14:57.235Z,32.90
2019-03-18T10:17:27.292Z,35.00
2019-03-18T10:19:57.219Z,37.40
2019-03-18T10:22:27.162Z,38.70
2019-03-18T10:24:57.095Z,40.00
2019-03-18T10:27:26.948Z,38.60
2019-03-18T10:29:56.820Z,38.20
2019-03-18T10:32:26.771Z,35.10
2019-03-18T10:34:56.710Z,35.30
2019-03-18T10:37:26.794Z,34.40
2019-03-18T10:39:56.923Z,31.30
2019-03-18T10:42:26.918Z,31.50
2019-03-18T10:44:56.775Z,33.50
2019-03-18T10:47:26.719Z,34.50
2019-03-18T10:49:56.615Z,37.00
2019-03-18T10:52:26.505Z,37.90
2019-03-18T10:54:56.452Z,36.90
2019-03-18T10:57:27.486Z,37.80
2019-03-18T10:59:57.349Z,40.30
2019-03-18T11:02:27.300Z,42.00
2019-03-18T11:04:57.237Z,43.70
2019-03-18T11:07:27.186Z,45.20
2019-03-18T11:09:57.112Z,47.40
2019-03-18T11:12:27.062Z,48.70
2019-03-18T11:14:56.940Z,49.00
2019-03-18T11:17:26.794Z,49.00
2019-03-18T11:19:58.714Z,50.30
2019-03-18T11:22:28.295Z,51.50
2019-03-18T11:24:58.221Z,52.50
2019-03-18T11:27:28.159Z,53.90
2019-03-18T11:29:58.176Z,54.30
2019-03-18T11:32:28.045Z,54.70
2019-03-18T11:34:57.993Z,55.20
2019-03-18T11:37:27.927Z,55.90
2019-03-18T11:39:57.837Z,56.40
2019-03-18T11:42:27.777Z,57.00
2019-03-18T11:44:57.626Z,57.10
2019-03-18T11:47:27.578Z,56.60
2019-03-18T11:50:09.964Z,56.80
2019-03-18T11:52:29.118Z,56.90
2019-03-18T11:54:59.047Z,57.10
2019-03-18T11:57:28.993Z,57.20
2019-03-18T11:59:58.951Z,57.50
2019-03-18T12:02:28.875Z,57.70
2019-03-18T12:04:58.711Z,57.70
2019-03-18T12:07:29.561Z,57.80
2019-03-18T12:09:59.462Z,57.90
2019-03-18T12:12:29.398Z,57.80
2019-03-18T12:14:59.259Z,58.00
2019-03-18T12:17:29.206Z,58.10
2019-03-18T12:19:59.121Z,59.50
2019-03-18T12:22:29.055Z,61.10
2019-03-18T12:24:58.891Z,62.30
2019-03-18T12:27:28.891Z,64.80
2019-03-18T12:29:58.748Z,66.70
2019-03-18T12:32:28.619Z,68.00
2019-03-18T12:34:58.578Z,68.10
2019-03-18T12:37:28.487Z,68.50
2019-03-18T12:39:58.372Z,66.20
2019-03-18T12:42:28.243Z,64.30
2019-03-18T12:44:58.234Z,63.20
2019-03-18T12:47:30.338Z,61.40
2019-03-18T12:50:00.288Z,60.80
2019-03-18T12:52:30.215Z,60.40
2019-03-18T12:55:00.367Z,59.00
2019-03-18T12:57:30.367Z,55.20
2019-03-18T13:00:00.372Z,52.00
2019-03-18T13:02:30.401Z,51.40
2019-03-18T13:05:00.416Z,51.10
2019-03-18T13:07:30.339Z,47.60
2019-03-18T13:10:00.420Z,45.30
2019-03-18T13:12:30.384Z,43.30
2019-03-18T13:15:00.390Z,44.30
2019-03-18T13:17:30.285Z,45.10
2019-03-18T13:20:00.407Z,47.10
2019-03-18T13:22:30.386Z,47.90
2019-03-18T13:25:00.531Z,49.80
2019-03-18T13:27:31.424Z,54.20
2019-03-18T13:30:01.378Z,51.60
2019-03-18T13:32:31.322Z,50.80
2019-03-18T13:35:01.193Z,50.80
2019-03-18T13:37:31.040Z,50.20
2019-03-18T13:40:01.111Z,49.80
2019-03-18T13:42:31.026Z,50.90
2019-03-18T13:45:00.909Z,51.10
2019-03-18T13:47:30.820Z,51.60
2019-03-18T13:50:00.791Z,52.30
2019-03-18T13:52:30.705Z,52.50
2019-03-18T13:55:00.555Z,52.30
2019-03-18T13:57:31.484Z,51.90
2019-03-18T14:00:01.340Z,51.60
2019-03-18T14:02:31.206Z,50.90
2019-03-18T14:05:01.123Z,50.50
2019-03-18T14:07:31.059Z,51.10
2019-03-18T14:10:01.005Z,49.80
2019-03-18T14:12:30.948Z,50.00
2019-03-18T14:15:00.795Z,50.80
2019-03-18T14:17:30.737Z,50.60
2019-03-18T14:20:00.957Z,51.30
2019-03-18T14:22:31.284Z,51.40
2019-03-18T14:25:01.123Z,50.80
2019-03-18T14:27:31.634Z,50.10
2019-03-18T14:30:01.551Z,49.00
2019-03-18T14:32:31.430Z,48.60
2019-03-18T14:35:01.288Z,48.30
2019-03-18T14:37:31.208Z,48.70
2019-03-18T14:40:01.052Z,49.10
2019-03-18T14:42:31.888Z,49.70
2019-03-18T14:45:01.812Z,49.50
2019-03-18T14:47:31.749Z,49.80
2019-03-18T14:50:01.699Z,50.40
2019-03-18T14:52:31.596Z,51.10
2019-03-18T14:55:01.464Z,52.20
2019-03-18T14:57:31.316Z,52.90
2019-03-18T15:00:01.177Z,53.40
2019-03-18T15:02:31.080Z,53.70
2019-03-18T15:05:00.949Z,54.20
2019-03-18T15:07:30.872Z,54.40
2019-03-18T15:10:00.717Z,55.10
2019-03-18T15:12:30.653Z,55.80
2019-03-18T15:15:00.576Z,56.30
2019-03-18T15:17:30.517Z,57.00
2019-03-18T15:20:00.518Z,57.10
2019-03-18T15:22:30.457Z,56.60
2019-03-18T15:25:00.418Z,56.10
2019-03-18T15:27:30.335Z,56.30
2019-03-18T15:30:00.367Z,56.80
2019-03-18T15:32:30.206Z,57.20
2019-03-18T15:35:00.059Z,57.50
2019-03-18T15:37:29.983Z,58.20
2019-03-18T15:39:59.842Z,57.60
2019-03-18T15:42:29.688Z,57.50
2019-03-18T15:44:59.573Z,57.70
2019-03-18T15:47:29.537Z,57.00
2019-03-18T15:49:59.402Z,57.10
2019-03-18T15:52:29.323Z,57.40
2019-03-18T15:54:59.260Z,57.80
2019-03-18T15:57:30.033Z,57.90
2019-03-18T16:00:00.045Z,58.40
2019-03-18T16:02:29.914Z,58.60
2019-03-18T16:04:59.832Z,58.50
2019-03-18T16:07:29.711Z,58.30
2019-03-18T16:09:59.624Z,58.50
2019-03-18T16:12:29.587Z,59.50
2019-03-18T16:14:59.496Z,62.60
2019-03-18T16:17:29.375Z,66.30
2019-03-18T16:19:59.300Z,68.10
2019-03-18T16:22:29.244Z,69.30
2019-03-18T16:24:59.186Z,70.10
2019-03-18T16:27:29.128Z,71.70
2019-03-18T16:29:59.070Z,72.30
2019-03-18T16:32:28.998Z,70.30
2019-03-18T16:34:58.870Z,70.20
2019-03-18T16:37:28.861Z,70.80
2019-03-18T16:39:58.724Z,70.20
2019-03-18T16:42:28.677Z,70.00
2019-03-18T16:44:58.602Z,70.00
2019-03-18T16:47:31.078Z,69.90
2019-03-18T16:50:00.011Z,69.20
2019-03-18T16:52:35.710Z,67.60
2019-03-18T16:55:01.438Z,68.20
2019-03-18T16:57:31.411Z,69.30
2019-03-18T17:00:01.341Z,70.00
2019-03-18T17:02:31.209Z,71.00
2019-03-18T17:05:01.072Z,71.60
2019-03-18T17:07:31.008Z,72.70
2019-03-18T17:10:00.930Z,73.00
2019-03-18T17:12:30.943Z,73.30
2019-03-18T17:15:00.859Z,74.50
2019-03-18T17:17:30.807Z,75.20
2019-03-18T17:20:00.672Z,75.70
2019-03-18T17:22:30.577Z,76.00
2019-03-18T17:25:00.591Z,76.90
2019-03-18T17:27:30.528Z,76.90
2019-03-18T17:30:00.462Z,77.20
2019-03-18T17:32:30.369Z,78.00
2019-03-18T17:35:00.325Z,78.10
2019-03-18T17:37:30.236Z,78.50
2019-03-18T17:40:00.120Z,78.80
2019-03-18T17:42:30.017Z,79.20
2019-03-18T17:44:59.966Z,79.50
2019-03-18T17:47:30.949Z,79.40
2019-03-18T17:50:00.846Z,79.50
2019-03-18T17:52:30.784Z,79.60
2019-03-18T17:55:00.624Z,80.30
2019-03-18T17:57:30.479Z,80.30
2019-03-18T18:00:00.461Z,80.40
2019-03-18T18:02:30.355Z,80.30
2019-03-18T18:05:03.309Z,80.60
2019-03-18T18:07:31.812Z,81.10
2019-03-18T18:10:01.786Z,80.70
2019-03-18T18:12:31.757Z,81.10
2019-03-18T18:15:01.690Z,81.30
2019-03-18T18:17:31.603Z,81.40
2019-03-18T18:20:01.525Z,80.90
2019-03-18T18:22:31.517Z,81.20
2019-03-18T18:25:01.444Z,81.60
2019-03-18T18:27:31.401Z,82.00
2019-03-18T18:30:01.419Z,82.10
2019-03-18T18:32:31.351Z,82.40
2019-03-18T18:35:01.273Z,82.00
2019-03-18T18:37:31.210Z,82.20
2019-03-18T18:40:01.112Z,82.50
2019-03-18T18:42:30.986Z,82.70
2019-03-18T18:45:00.932Z,83.00
2019-03-18T18:47:30.851Z,83.20
2019-03-18T18:50:00.863Z,83.10
2019-03-18T18:52:30.756Z,83.20
2019-03-18T18:55:00.665Z,83.40
2019-03-18T18:57:30.528Z,83.00
2019-03-18T19:00:01.062Z,82.90
2019-03-18T19:02:30.993Z,82.80
2019-03-18T19:05:00.951Z,83.00
2019-03-18T19:07:30.889Z,83.10
2019-03-18T19:10:00.920Z,82.90
2019-03-18T19:12:30.788Z,83.00
2019-03-18T19:15:00.741Z,83.00
2019-03-18T19:17:30.660Z,82.80
2019-03-18T19:20:00.593Z,82.60
2019-03-18T19:22:30.478Z,82.50
2019-03-18T19:25:00.516Z,82.50
2019-03-18T19:27:30.577Z,82.80
2019-03-18T19:30:00.549Z,82.70
2019-03-18T19:32:30.439Z,82.70
2019-03-18T19:35:00.361Z,82.70
2019-03-18T19:37:30.444Z,82.80
2019-03-18T19:40:00.394Z,83.00
2019-03-18T19:42:30.318Z,83.10
2019-03-18T19:45:01.518Z,83.10
2019-03-18T19:47:32.808Z,83.30
2019-03-18T19:50:02.762Z,83.40
2019-03-18T19:52:32.684Z,83.60
2019-03-18T19:55:02.539Z,83.70
2019-03-18T19:57:32.450Z,83.70
2019-03-18T20:00:02.577Z,84.10
2019-03-18T20:02:32.576Z,84.00
2019-03-18T20:05:02.405Z,84.30
2019-03-18T20:07:32.356Z,84.80
2019-03-18T20:10:11.438Z,84.80
2019-03-18T20:12:41.815Z,85.10
2019-03-18T20:15:15.293Z,84.90
2019-03-18T20:17:45.589Z,85.50
2019-03-18T20:20:16.935Z,85.50
2019-03-18T20:22:46.936Z,85.80
2019-03-18T20:25:16.862Z,85.80
2019-03-18T20:27:46.817Z,86.10
2019-03-18T20:30:20.487Z,85.90
2019-03-18T20:32:50.720Z,86.10
2019-03-18T20:35:23.805Z,86.30
2019-03-18T20:37:53.754Z,86.20
2019-03-18T20:40:23.794Z,86.20
2019-03-18T20:42:53.712Z,86.00
2019-03-18T20:45:25.819Z,86.00
2019-03-18T20:47:55.800Z,85.80
2019-03-18T20:50:25.851Z,85.60
2019-03-18T20:52:58.794Z,85.90
2019-03-18T20:55:28.961Z,86.50
2019-03-18T20:57:58.879Z,85.70
2019-03-18T21:00:28.969Z,85.70
2019-03-18T21:02:58.967Z,86.00
2019-03-18T21:05:28.957Z,86.20
2019-03-18T21:07:58.870Z,86.60
2019-03-18T21:10:28.897Z,86.60
2019-03-18T21:12:58.773Z,86.90
2019-03-18T21:15:28.648Z,87.20
2019-03-18T21:17:58.572Z,87.40
2019-03-18T21:20:31.577Z,87.50
2019-03-18T21:23:01.661Z,88.30
2019-03-18T21:25:31.580Z,87.80
2019-03-18T21:28:01.503Z,87.70
2019-03-18T21:30:31.394Z,87.70
2019-03-18T21:33:01.273Z,87.80
2019-03-18T21:35:31.205Z,87.60
2019-03-18T21:38:01.106Z,88.00
2019-03-18T21:40:31.050Z,88.00
2019-03-18T21:43:00.961Z,88.20
2019-03-18T21:45:30.814Z,88.10
2019-03-18T21:48:00.749Z,88.00
2019-03-18T21:50:30.651Z,88.20
2019-03-18T21:53:00.600Z,88.20
2019-03-18T21:55:30.537Z,88.20
2019-03-18T21:58:00.471Z,88.40
2019-03-18T22:00:33.367Z,88.10
2019-03-18T22:03:03.299Z,88.30
2019-03-18T22:05:33.250Z,89.10
2019-03-18T22:08:03.254Z,88.50
2019-03-18T22:10:33.270Z,88.20
2019-03-18T22:13:03.127Z,88.10
2019-03-18T22:15:33.068Z,88.40
2019-03-18T22:18:02.910Z,88.50
2019-03-18T22:20:32.925Z,88.70
2019-03-18T22:23:02.763Z,88.50
2019-03-18T22:25:34.762Z,88.70
2019-03-18T22:28:05.080Z,88.40
2019-03-18T22:30:35.027Z,88.60
2019-03-18T22:33:05.141Z,88.70
2019-03-18T22:35:36.156Z,89.60
2019-03-18T22:38:07.137Z,89.00
2019-03-18T22:40:37.099Z,89.40
2019-03-18T22:43:06.991Z,89.70
2019-03-18T22:45:36.856Z,89.80
2019-03-18T22:48:06.764Z,90.00
2019-03-18T22:50:36.624Z,90.00
2019-03-18T22:53:06.494Z,90.10
2019-03-18T22:55:36.418Z,90.10
2019-03-18T22:58:06.428Z,90.00
2019-03-18T23:00:37.922Z,89.70
2019-03-18T23:03:08.130Z,90.00
2019-03-18T23:05:38.015Z,90.00
2019-03-18T23:08:08.790Z,90.00
2019-03-18T23:10:38.914Z,90.10
2019-03-18T23:13:09.901Z,90.20
2019-03-18T23:15:39.766Z,90.10
2019-03-18T23:18:09.683Z,90.30
2019-03-18T23:20:39.715Z,90.20
2019-03-18T23:23:09.658Z,90.20
2019-03-18T23:25:39.643Z,90.30
2019-03-18T23:28:09.577Z,89.90
2019-03-18T23:30:40.656Z,90.10
2019-03-18T23:33:10.521Z,90.10
2019-03-18T23:35:40.405Z,89.70
2019-03-18T23:38:10.309Z,89.90
2019-03-18T23:40:40.242Z,90.00
2019-03-18T23:43:10.234Z,90.30
2019-03-18T23:45:40.187Z,90.10
2019-03-18T23:48:10.127Z,90.00
2019-03-18T23:50:40.127Z,90.00
2019-03-18T23:53:10.534Z,90.00
2019-03-18T23:55:41.369Z,90.00
2019-03-18T23:58:11.361Z,90.00
